createdAt,value
2023-04-18T00:01:18.217Z,49.64
2023-04-18T00:03:46.237Z,50.43
2023-04-18T00:06:14.386Z,50.10
2023-04-18T00:08:41.834Z,50.78
2023-04-18T00:11:09.226Z,50.35
2023-04-18T00:13:38.677Z,50.48
2023-04-18T00:16:08.311Z,50.88
2023-04-18T00:18:37.300Z,51.26
2023-04-18T00:21:04.951Z,51.58
2023-04-18T00:23:34.520Z,51.52
2023-04-18T00:26:02.409Z,51.84
2023-04-18T00:28:29.859Z,51.93
2023-04-18T00:30:57.406Z,51.77
2023-04-18T00:33:24.856Z,52.30
2023-04-18T00:35:54.885Z,52.81
2023-04-18T00:38:22.275Z,52.79
2023-04-18T00:40:49.816Z,52.24
2023-04-18T00:43:17.577Z,53.09
2023-04-18T00:45:45.016Z,53.26
2023-04-18T00:48:12.740Z,53.83
2023-04-18T00:50:41.991Z,54.53
2023-04-18T00:53:11.392Z,54.28
2023-04-18T00:55:39.151Z,54.76
2023-04-18T00:58:06.865Z,55.10
2023-04-18T01:00:34.869Z,54.43
2023-04-18T01:03:02.453Z,54.59
2023-04-18T01:05:30.254Z,55.51
2023-04-18T01:08:01.341Z,55.45
2023-04-18T01:10:30.835Z,55.36
2023-04-18T01:13:15.170Z,55.57
2023-04-18T01:15:45.282Z,55.90
2023-04-18T01:18:13.946Z,55.97
2023-04-18T01:20:47.146Z,56.37
2023-04-18T01:23:15.624Z,55.86
2023-04-18T01:25:42.971Z,56.55
2023-04-18T01:28:11.497Z,56.84
2023-04-18T01:30:39.055Z,56.98
2023-04-18T01:33:06.904Z,57.42
2023-04-18T01:35:34.448Z,57.15
2023-04-18T01:38:01.960Z,57.26
2023-04-18T01:40:30.420Z,57.50
2023-04-18T01:42:57.551Z,58.52
2023-04-18T01:45:25.221Z,57.35
2023-04-18T01:47:52.707Z,56.96
2023-04-18T01:50:20.260Z,57.42
2023-04-18T01:52:48.474Z,58.47
2023-04-18T01:55:17.056Z,58.66
2023-04-18T01:57:44.544Z,58.70
2023-04-18T02:00:30.986Z,57.87
2023-04-18T02:03:01.641Z,59.25
2023-04-18T02:05:29.399Z,58.87
2023-04-18T02:07:56.885Z,58.55
2023-04-18T02:10:24.507Z,59.06
2023-04-18T02:12:52.266Z,58.67
2023-04-18T02:15:20.755Z,58.84
2023-04-18T02:17:49.323Z,59.90
2023-04-18T02:20:16.936Z,59.67
2023-04-18T02:25:31.160Z,59.17
2023-04-18T02:28:17.316Z,59.59
2023-04-18T02:30:44.859Z,59.54
2023-04-18T02:33:12.247Z,59.98
2023-04-18T02:35:40.911Z,59.17
2023-04-18T02:38:09.514Z,59.34
2023-04-18T02:40:37.009Z,59.76
2023-04-18T02:43:04.554Z,60.14
2023-04-18T02:45:33.025Z,59.59
2023-04-18T02:48:01.597Z,59.87
2023-04-18T02:50:29.780Z,59.36
2023-04-18T02:52:58.473Z,59.56
2023-04-18T02:55:33.581Z,59.04
2023-04-18T02:58:20.396Z,58.45
2023-04-18T03:01:11.021Z,58.63
2023-04-18T03:03:58.307Z,58.52
2023-04-18T03:06:36.184Z,58.79
2023-04-18T03:09:04.162Z,58.02
2023-04-18T03:11:34.382Z,57.84
2023-04-18T03:14:02.157Z,57.29
2023-04-18T03:16:37.580Z,57.52
2023-04-18T03:19:06.918Z,56.67
2023-04-18T03:21:34.644Z,56.14
2023-04-18T03:24:02.300Z,56.08
2023-04-18T03:26:29.939Z,56.19
2023-04-18T03:28:57.753Z,55.66
2023-04-18T03:31:25.408Z,55.92
2023-04-18T03:33:52.806Z,55.90
2023-04-18T03:36:25.538Z,55.75
2023-04-18T03:38:55.368Z,54.90
2023-04-18T03:41:24.107Z,55.13
2023-04-18T03:43:51.712Z,54.54
2023-04-18T03:46:19.672Z,54.48
2023-04-18T03:48:49.909Z,55.07
2023-04-18T03:51:17.472Z,53.96
2023-04-18T03:53:44.874Z,53.72
2023-04-18T03:56:12.501Z,53.29
2023-04-18T03:58:47.664Z,53.26
2023-04-18T04:01:15.322Z,52.28
2023-04-18T04:03:43.064Z,52.49
2023-04-18T04:06:10.601Z,52.40
2023-04-18T04:08:38.062Z,52.68
2023-04-18T04:11:05.535Z,52.07
2023-04-18T04:13:33.810Z,52.17
2023-04-18T04:16:01.624Z,51.57
2023-04-18T04:18:31.463Z,51.21
2023-04-18T04:21:01.503Z,50.37
2023-04-18T04:23:46.617Z,50.75
2023-04-18T04:26:26.426Z,50.08
2023-04-18T04:29:08.297Z,50.67
2023-04-18T04:31:39.476Z,49.70
2023-04-18T04:34:07.218Z,49.74
2023-04-18T04:36:35.145Z,49.24
2023-04-18T04:39:05.519Z,49.04
2023-04-18T04:41:47.342Z,49.37
2023-04-18T04:44:18.214Z,48.50
2023-04-18T04:46:45.946Z,48.59
2023-04-18T04:49:19.590Z,48.82
2023-04-18T04:51:47.269Z,47.55
2023-04-18T04:54:15.479Z,47.58
2023-04-18T04:56:44.846Z,46.21
2023-04-18T04:59:14.584Z,46.96
2023-04-18T05:01:44.989Z,46.32
2023-04-18T05:04:13.129Z,46.06
2023-04-18T05:06:42.806Z,45.68
2023-04-18T05:09:10.558Z,45.76
2023-04-18T05:11:40.004Z,45.69
2023-04-18T05:14:08.117Z,45.79
2023-04-18T05:16:37.445Z,45.99
2023-04-18T05:19:06.240Z,45.19
2023-04-18T05:21:35.348Z,45.35
2023-04-18T05:24:03.118Z,45.06
2023-04-18T05:26:32.379Z,44.22
2023-04-18T05:29:00.006Z,44.27
2023-04-18T05:31:30.914Z,44.41
2023-04-18T05:34:01.747Z,43.78
2023-04-18T05:36:29.802Z,43.24
2023-04-18T05:38:57.514Z,42.37
2023-04-18T05:41:25.884Z,42.63
2023-04-18T05:44:05.247Z,41.60
2023-04-18T05:46:37.923Z,41.40
2023-04-18T05:49:05.753Z,40.86
2023-04-18T05:51:33.587Z,40.46
2023-04-18T05:54:02.865Z,40.34
2023-04-18T05:56:32.492Z,39.60
2023-04-18T05:59:02.788Z,40.10
2023-04-18T06:01:34.435Z,38.87
2023-04-18T06:04:09.014Z,39.13
2023-04-18T06:06:41.213Z,38.93
2023-04-18T06:09:11.314Z,39.01
2023-04-18T06:11:41.694Z,38.57
2023-04-18T06:14:11.847Z,37.75
2023-04-18T06:16:39.917Z,38.08
2023-04-18T06:19:08.249Z,36.95
2023-04-18T06:21:35.795Z,37.88
2023-04-18T06:24:06.698Z,37.56
2023-04-18T06:26:40.997Z,36.32
2023-04-18T06:29:36.821Z,35.99
2023-04-18T06:32:07.791Z,36.58
2023-04-18T06:34:41.265Z,36.43
2023-04-18T06:37:09.465Z,36.72
2023-04-18T06:39:36.986Z,36.20
2023-04-18T06:42:05.870Z,36.33
2023-04-18T06:44:36.831Z,36.00
2023-04-18T06:47:08.947Z,35.01
2023-04-18T06:49:37.903Z,35.53
2023-04-18T06:52:08.121Z,34.13
2023-04-18T06:54:35.755Z,34.64
2023-04-18T06:57:04.505Z,34.13
2023-04-18T06:59:34.441Z,33.87
2023-04-18T07:02:03.895Z,34.02
2023-04-18T07:04:31.497Z,32.63
2023-04-18T07:07:02.177Z,33.04
2023-04-18T07:09:29.777Z,33.02
2023-04-18T07:11:57.460Z,33.04
2023-04-18T07:14:26.150Z,32.63
2023-04-18T07:16:54.698Z,31.60
2023-04-18T07:19:23.625Z,31.32
2023-04-18T07:21:51.332Z,32.19
2023-04-18T07:24:19.219Z,32.14
2023-04-18T07:29:53.016Z,32.63
2023-04-18T07:32:28.289Z,32.03
2023-04-18T07:34:58.051Z,32.29
2023-04-18T07:37:46.779Z,32.41
2023-04-18T07:40:15.282Z,32.53
2023-04-18T07:42:47.340Z,32.69
2023-04-18T07:46:20.903Z,31.62
2023-04-18T07:49:07.692Z,32.61
2023-04-18T07:51:36.879Z,32.40
2023-04-18T07:54:05.300Z,31.81
2023-04-18T07:56:36.428Z,32.72
2023-04-18T07:59:04.137Z,32.58
2023-04-18T08:01:32.266Z,32.60
2023-04-18T08:04:02.239Z,32.86
2023-04-18T08:06:35.275Z,31.19
2023-04-18T08:09:06.359Z,30.98
2023-04-18T08:11:35.070Z,30.70
2023-04-18T08:14:04.601Z,31.24
2023-04-18T08:16:32.470Z,30.85
2023-04-18T08:19:00.182Z,31.31
2023-04-18T08:21:28.416Z,31.32
2023-04-18T08:23:58.640Z,30.73
2023-04-18T08:26:27.893Z,29.08
2023-04-18T08:28:55.798Z,29.71
2023-04-18T08:31:27.274Z,30.34
2023-04-18T08:33:57.696Z,29.94
2023-04-18T08:36:25.608Z,30.37
2023-04-18T08:38:54.791Z,30.21
2023-04-18T08:41:35.967Z,29.95
2023-04-18T08:44:03.881Z,30.25
2023-04-18T08:46:37.440Z,29.43
2023-04-18T08:49:06.508Z,29.55
2023-04-18T08:51:34.426Z,29.03
2023-04-18T08:54:06.520Z,28.81
2023-04-18T08:56:37.892Z,29.86
2023-04-18T08:59:05.874Z,29.12
2023-04-18T09:01:58.030Z,29.00
2023-04-18T09:04:44.017Z,28.48
2023-04-18T09:07:17.354Z,28.50
2023-04-18T09:09:45.381Z,27.62
2023-04-18T09:12:18.891Z,28.24
2023-04-18T09:14:49.166Z,28.39
2023-04-18T09:17:40.057Z,28.63
2023-04-18T09:20:13.417Z,28.28
2023-04-18T09:22:58.360Z,29.00
2023-04-18T09:28:43.559Z,28.24
2023-04-18T09:31:13.395Z,29.01
2023-04-18T09:33:57.962Z,28.87
2023-04-18T09:36:28.438Z,29.00
2023-04-18T09:38:57.452Z,29.23
2023-04-18T09:41:28.362Z,29.03
2023-04-18T09:44:15.253Z,28.41
2023-04-18T09:46:47.154Z,29.03
2023-04-18T09:49:19.198Z,28.57
2023-04-18T09:51:51.206Z,28.79
2023-04-18T09:54:21.059Z,29.20
2023-04-18T09:56:51.168Z,28.42
2023-04-18T09:59:38.504Z,28.21
2023-04-18T10:02:10.343Z,28.52
2023-04-18T10:04:38.479Z,28.34
2023-04-18T10:07:08.070Z,27.98
2023-04-18T10:09:37.159Z,28.62
2023-04-18T10:12:04.982Z,28.40
2023-04-18T10:14:52.836Z,28.91
2023-04-18T10:17:20.744Z,28.94
2023-04-18T10:20:03.275Z,28.84
2023-04-18T10:22:31.085Z,29.03
2023-04-18T10:24:58.688Z,29.17
2023-04-18T10:27:57.074Z,29.23
2023-04-18T10:30:44.647Z,29.03
2023-04-18T10:36:13.989Z,29.03
2023-04-18T10:38:49.162Z,29.04
2023-04-18T10:41:26.951Z,28.66
2023-04-18T10:44:09.916Z,28.48
2023-04-18T10:46:42.515Z,29.23
2023-04-18T10:49:22.339Z,29.43
2023-04-18T10:51:54.220Z,28.86
2023-04-18T10:54:46.425Z,29.04
2023-04-18T10:57:14.364Z,28.76
2023-04-18T10:59:43.250Z,28.59
2023-04-18T11:02:31.157Z,28.37
2023-04-18T11:05:01.930Z,28.74
2023-04-18T11:07:36.454Z,29.11
2023-04-18T11:10:06.475Z,28.94
2023-04-18T11:12:38.795Z,28.79
2023-04-18T11:15:23.551Z,28.92
2023-04-18T11:18:10.736Z,29.38
2023-04-18T11:20:40.318Z,29.21
2023-04-18T11:23:18.517Z,29.05
2023-04-18T11:25:45.995Z,28.99
2023-04-18T11:28:13.932Z,29.15
2023-04-18T11:30:42.051Z,29.54
2023-04-18T11:33:11.885Z,28.70
2023-04-18T11:35:40.760Z,28.96
2023-04-18T11:38:10.526Z,29.22
2023-04-18T11:40:38.119Z,28.92
2023-04-18T11:43:06.366Z,28.11
2023-04-18T11:45:34.535Z,28.02
2023-04-18T11:48:03.293Z,28.85
2023-04-18T11:50:36.829Z,29.08
2023-04-18T11:53:04.854Z,29.11
2023-04-18T11:55:32.668Z,29.00
2023-04-18T11:58:01.889Z,29.19
2023-04-18T12:00:38.880Z,29.35
2023-04-18T12:03:17.361Z,29.68
2023-04-18T12:05:45.627Z,29.33
2023-04-18T12:08:20.336Z,28.71
2023-04-18T12:10:52.906Z,29.96
2023-04-18T12:13:31.880Z,28.51
2023-04-18T12:16:02.668Z,28.42
2023-04-18T12:18:30.158Z,28.70
2023-04-18T12:20:58.882Z,28.76
2023-04-18T12:23:35.811Z,28.07
2023-04-18T12:26:08.792Z,28.34
2023-04-18T12:28:36.268Z,29.34
2023-04-18T12:31:07.703Z,28.03
2023-04-18T12:33:36.967Z,27.69
2023-04-18T12:36:08.869Z,28.05
2023-04-18T12:38:36.544Z,27.75
2023-04-18T12:41:04.053Z,28.34
2023-04-18T12:43:31.497Z,27.90
2023-04-18T12:45:59.882Z,28.24
2023-04-18T12:48:27.251Z,28.85
2023-04-18T12:50:54.609Z,28.36
2023-04-18T12:53:22.024Z,28.05
2023-04-18T12:55:49.589Z,28.52
2023-04-18T12:58:18.952Z,28.11
2023-04-18T13:00:46.688Z,28.79
2023-04-18T13:03:14.341Z,28.63
2023-04-18T13:05:41.968Z,28.90
2023-04-18T13:08:16.990Z,28.38
2023-04-18T13:10:46.387Z,28.54
2023-04-18T13:13:13.971Z,28.50
2023-04-18T13:15:41.663Z,28.22
2023-04-18T13:18:08.957Z,28.62
2023-04-18T13:20:36.903Z,29.23
2023-04-18T13:23:04.336Z,28.46
2023-04-18T13:25:31.785Z,28.75
2023-04-18T13:28:01.189Z,28.88
2023-04-18T13:30:29.475Z,28.49
2023-04-18T13:32:57.074Z,28.80
2023-04-18T13:35:25.083Z,28.39
2023-04-18T13:37:52.532Z,28.32
2023-04-18T13:40:20.122Z,28.48
2023-04-18T13:42:47.519Z,28.79
2023-04-18T13:45:14.924Z,28.68
2023-04-18T13:47:42.397Z,28.47
2023-04-18T13:50:10.111Z,29.18
2023-04-18T13:52:37.612Z,28.70
2023-04-18T13:55:05.369Z,28.38
2023-04-18T13:57:34.640Z,28.77
2023-04-18T14:00:02.242Z,29.09
2023-04-18T14:02:41.208Z,29.03
2023-04-18T14:05:09.334Z,28.44
2023-04-18T14:07:38.597Z,27.97
2023-04-18T14:10:07.004Z,29.09
2023-04-18T14:12:34.846Z,28.41
2023-04-18T14:15:02.335Z,27.95
2023-04-18T14:17:32.486Z,28.40
2023-04-18T14:20:01.139Z,28.24
2023-04-18T14:22:30.737Z,28.34
2023-04-18T14:24:58.012Z,27.96
2023-04-18T14:27:26.360Z,28.11
2023-04-18T14:29:53.946Z,28.12
2023-04-18T14:32:21.427Z,28.40
2023-04-18T14:34:48.884Z,28.13
2023-04-18T14:37:17.175Z,28.36
2023-04-18T14:39:45.249Z,28.27
2023-04-18T14:42:12.751Z,27.89
2023-04-18T14:44:58.924Z,27.67
2023-04-18T14:47:32.014Z,28.07
2023-04-18T14:49:59.375Z,27.99
2023-04-18T14:52:27.034Z,28.35
2023-04-18T14:54:54.429Z,28.16
2023-04-18T14:57:21.932Z,28.39
2023-04-18T14:59:49.981Z,28.50
2023-04-18T15:02:18.201Z,28.21
2023-04-18T15:04:45.835Z,28.83
2023-04-18T15:07:13.789Z,28.56
2023-04-18T15:09:41.206Z,28.97
2023-04-18T15:12:08.640Z,29.04
2023-04-18T15:14:36.170Z,29.25
2023-04-18T15:17:05.201Z,29.63
2023-04-18T15:19:32.655Z,29.62
2023-04-18T15:22:00.118Z,29.98
2023-04-18T15:24:27.469Z,30.07
2023-04-18T15:26:54.812Z,29.91
2023-04-18T15:29:22.119Z,29.99
2023-04-18T15:31:49.492Z,29.97
2023-04-18T15:34:17.779Z,29.60
2023-04-18T15:36:47.317Z,29.64
2023-04-18T15:39:15.146Z,29.93
2023-04-18T15:41:42.405Z,29.77
2023-04-18T15:44:09.543Z,29.89
2023-04-18T15:46:36.904Z,30.16
2023-04-18T15:49:04.258Z,30.08
2023-04-18T15:51:31.862Z,30.07
2023-04-18T15:53:59.349Z,30.57
2023-04-18T15:56:27.126Z,30.48
2023-04-18T15:58:57.793Z,30.26
2023-04-18T16:01:25.395Z,30.44
2023-04-18T16:03:53.141Z,30.76
2023-04-18T16:06:23.770Z,30.77
2023-04-18T16:08:51.336Z,30.89
2023-04-18T16:11:20.821Z,31.00
2023-04-18T16:13:48.224Z,31.09
2023-04-18T16:16:15.705Z,31.46
2023-04-18T16:18:43.078Z,31.51
2023-04-18T16:21:14.610Z,31.74
2023-04-18T16:23:42.612Z,31.71
2023-04-18T16:26:09.901Z,31.90
2023-04-18T16:31:24.570Z,31.90
2023-04-18T16:33:53.137Z,32.14
2023-04-18T16:36:20.790Z,32.13
2023-04-18T16:38:48.222Z,31.89
2023-04-18T16:41:15.658Z,32.59
2023-04-18T16:43:42.990Z,32.28
2023-04-18T16:46:12.111Z,32.31
2023-04-18T16:48:39.869Z,32.31
2023-04-18T16:51:07.394Z,32.48
2023-04-18T16:53:34.774Z,32.61
2023-04-18T16:56:03.468Z,32.32
2023-04-18T16:58:30.764Z,32.43
2023-04-18T17:00:58.138Z,31.85
2023-04-18T17:03:25.824Z,32.45
2023-04-18T17:05:53.471Z,32.07
2023-04-18T17:08:20.824Z,32.17
2023-04-18T17:10:52.597Z,32.01
2023-04-18T17:13:20.053Z,32.03
2023-04-18T17:15:47.552Z,32.32
2023-04-18T17:18:15.035Z,32.16
2023-04-18T17:20:42.532Z,31.97
2023-04-18T17:23:10.017Z,31.54
2023-04-18T17:25:37.597Z,31.34
2023-04-18T17:28:05.233Z,31.64
2023-04-18T17:30:32.632Z,31.74
2023-04-18T17:33:00.143Z,31.88
2023-04-18T17:35:27.541Z,31.66
2023-04-18T17:37:54.925Z,31.46
2023-04-18T17:40:22.390Z,31.59
2023-04-18T17:42:49.769Z,31.63
2023-04-18T17:45:20.665Z,31.18
2023-04-18T17:47:49.780Z,31.60
2023-04-18T17:50:17.878Z,31.30
2023-04-18T17:52:46.617Z,31.29
2023-04-18T17:55:14.104Z,31.00
2023-04-18T17:57:41.925Z,30.94
2023-04-18T18:00:12.087Z,30.92
2023-04-18T18:02:43.754Z,31.08
2023-04-18T18:05:14.024Z,31.29
2023-04-18T18:07:43.377Z,31.22
2023-04-18T18:10:12.081Z,31.15
2023-04-18T18:12:40.154Z,31.10
2023-04-18T18:15:08.917Z,31.32
2023-04-18T18:17:36.339Z,31.49
2023-04-18T18:20:08.862Z,31.82
2023-04-18T18:22:36.533Z,31.56
2023-04-18T18:25:05.705Z,31.55
2023-04-18T18:27:33.232Z,32.05
2023-04-18T18:30:00.679Z,31.99
2023-04-18T18:32:28.162Z,32.11
2023-04-18T18:34:55.645Z,32.18
2023-04-18T18:37:24.881Z,32.38
2023-04-18T18:39:54.596Z,33.02
2023-04-18T18:42:22.131Z,32.54
2023-04-18T18:44:49.545Z,32.95
2023-04-18T18:47:18.497Z,33.11
2023-04-18T18:49:45.929Z,32.75
2023-04-18T18:52:13.281Z,32.58
2023-04-18T18:54:40.687Z,33.29
2023-04-18T18:57:08.865Z,33.61
2023-04-18T18:59:36.352Z,33.67
2023-04-18T19:02:04.544Z,33.96
2023-04-18T19:04:32.089Z,33.92
2023-04-18T19:06:59.805Z,34.05
2023-04-18T19:09:27.587Z,34.00
2023-04-18T19:11:57.114Z,33.23
2023-04-18T19:14:24.657Z,33.67
2023-04-18T19:16:52.195Z,33.69
2023-04-18T19:19:19.653Z,33.28
2023-04-18T19:21:47.151Z,33.53
2023-04-18T19:24:15.059Z,33.71
2023-04-18T19:26:42.766Z,33.58
2023-04-18T19:29:11.760Z,33.43
2023-04-18T19:31:39.206Z,33.56
2023-04-18T19:34:06.689Z,33.51
2023-04-18T19:36:33.948Z,33.72
2023-04-18T19:39:01.610Z,33.96
2023-04-18T19:41:29.074Z,33.59
2023-04-18T19:43:56.493Z,33.74
2023-04-18T19:46:23.841Z,33.90
2023-04-18T19:48:51.228Z,33.69
2023-04-18T19:51:18.748Z,34.05
2023-04-18T19:53:46.244Z,34.26
2023-04-18T19:56:15.150Z,33.84
2023-04-18T19:58:46.943Z,33.69
2023-04-18T20:01:18.651Z,33.75
2023-04-18T20:03:47.323Z,33.98
2023-04-18T20:06:14.860Z,34.36
2023-04-18T20:08:42.290Z,33.94
2023-04-18T20:11:11.210Z,34.23
2023-04-18T20:13:38.972Z,33.83
2023-04-18T20:16:25.048Z,34.24
2023-04-18T20:19:12.474Z,34.28
2023-04-18T20:21:58.741Z,34.06
2023-04-18T20:24:49.431Z,34.75
2023-04-18T20:27:35.566Z,35.25
2023-04-18T20:30:22.260Z,35.26
2023-04-18T20:33:26.831Z,34.95
2023-04-18T20:35:55.009Z,35.46
2023-04-18T20:38:41.159Z,35.44
2023-04-18T20:41:48.995Z,35.96
2023-04-18T20:44:17.065Z,35.51
2023-04-18T20:46:44.366Z,35.51
2023-04-18T20:49:11.875Z,36.06
2023-04-18T20:51:58.006Z,35.62
2023-04-18T20:54:43.982Z,35.83
2023-04-18T20:57:11.381Z,36.46
2023-04-18T20:59:38.798Z,36.80
2023-04-18T21:02:08.500Z,37.09
2023-04-18T21:04:36.175Z,36.94
2023-04-18T21:07:03.661Z,37.67
2023-04-18T21:09:36.550Z,37.74
2023-04-18T21:12:05.760Z,38.21
2023-04-18T21:14:53.044Z,38.78
2023-04-18T21:17:20.483Z,38.62
2023-04-18T21:19:49.100Z,38.92
2023-04-18T21:22:17.296Z,38.74
2023-04-18T21:24:45.360Z,38.89
2023-04-18T21:27:31.584Z,39.84
2023-04-18T21:30:17.433Z,39.28
2023-04-18T21:32:46.098Z,39.15
2023-04-18T21:35:32.328Z,39.57
2023-04-18T21:37:59.788Z,40.05
2023-04-18T21:40:27.268Z,40.74
2023-04-18T21:42:54.743Z,41.30
2023-04-18T21:45:22.278Z,40.98
2023-04-18T21:47:50.107Z,40.80
2023-04-18T21:50:17.688Z,40.46
2023-04-18T21:52:45.211Z,40.48
2023-04-18T21:55:31.121Z,40.96
2023-04-18T21:57:58.680Z,41.05
2023-04-18T22:00:26.067Z,40.71
2023-04-18T22:02:53.593Z,40.79
2023-04-18T22:05:21.165Z,41.37
2023-04-18T22:08:06.955Z,41.20
2023-04-18T22:10:55.429Z,41.47
2023-04-18T22:13:23.906Z,41.48
2023-04-18T22:16:28.432Z,41.11
2023-04-18T22:18:56.083Z,41.98
2023-04-18T22:21:23.500Z,42.46
2023-04-18T22:23:50.834Z,42.42
2023-04-18T22:26:18.193Z,42.63
2023-04-18T22:28:45.613Z,43.11
2023-04-18T22:31:12.945Z,43.92
2023-04-18T22:33:40.506Z,44.26
2023-04-18T22:36:08.123Z,45.37
2023-04-18T22:38:35.535Z,44.70
2023-04-18T22:41:02.866Z,45.39
2023-04-18T22:43:30.859Z,45.33
2023-04-18T22:45:58.267Z,45.04
2023-04-18T22:48:25.796Z,45.08
2023-04-18T22:50:53.158Z,46.30
2023-04-18T22:53:20.701Z,46.09
2023-04-18T22:55:48.144Z,46.06
2023-04-18T22:58:15.519Z,46.44
2023-04-18T23:00:43.282Z,46.36
2023-04-18T23:03:10.966Z,46.35
2023-04-18T23:05:38.383Z,46.19
2023-04-18T23:08:07.150Z,46.34
2023-04-18T23:10:34.727Z,46.01
2023-04-18T23:13:02.358Z,46.53
2023-04-18T23:15:29.865Z,46.03
2023-04-18T23:17:57.234Z,46.15
2023-04-18T23:20:24.659Z,45.95
2023-04-18T23:22:53.003Z,45.58
2023-04-18T23:25:20.461Z,45.43
2023-04-18T23:27:49.088Z,45.52
2023-04-18T23:30:16.615Z,45.03
2023-04-18T23:32:44.324Z,45.48
2023-04-18T23:35:30.257Z,45.26
2023-04-18T23:37:57.794Z,44.96
2023-04-18T23:40:25.281Z,44.51
2023-04-18T23:42:52.611Z,44.75
2023-04-18T23:45:19.987Z,44.43
2023-04-18T23:47:47.336Z,44.66
2023-04-18T23:50:14.803Z,43.94
2023-04-18T23:53:00.917Z,44.51
2023-04-18T23:55:28.287Z,44.54
2023-04-18T23:57:55.755Z,44.44
